KSLG/SLG METAR and TAF weather

Enter ICAO airport designator
Station Type Date Time Source
KSLG METAR 2020/07/11 03:56 UTC NOAA

KSLG 110356Z AUTO 21003KT 10SM CLR 24/22 A3006 RMK AO2 SLP169 T02390217 TSNO


Station Type Date Time Source
KSLG Decoded METAR 2020/07/11 03:56 UTC NOAA

Siloam Springs, Smith Field Airport, AR, United States (KSLG) 36-12N 094-29W
Jul 10, 2020 - 11:56 PM EDT / 2020.07.11 0356 UTC
Wind: from the SSW (210 degrees) at 3 MPH (3 KT):0
Visibility: 10 mile(s):0
Sky conditions: clear
Temperature: 75.0 F (23.9 C)
Dew Point: 71.1 F (21.7 C)
Relative Humidity: 87%
Pressure (altimeter): 30.06 in. Hg (1017 hPa)
ob: KSLG 110356Z AUTO 21003KT 10SM CLR 24/22 A3006 RMK AO2 SLP169 T02390217 TSNO
cycle: 4

Station Type Date Time Source
KSLG TAF UTC NOAA

Error!

Example: see airport list